createdAt,value
2022-08-07T00:00:14.764Z,98780.68
2022-08-07T00:03:47.392Z,98782.05
2022-08-07T00:07:21.506Z,98783.05
2022-08-07T00:11:19.844Z,98789.66
2022-08-07T00:14:51.650Z,98792.71
2022-08-07T00:18:29.687Z,98798.52
2022-08-07T00:22:05.366Z,98791.79
2022-08-07T00:25:41.860Z,98800.30
2022-08-07T00:29:37.885Z,98802.24
2022-08-07T00:33:02.225Z,98799.16
2022-08-07T00:36:43.047Z,98806.54
2022-08-07T00:40:15.820Z,98805.70
2022-08-07T00:44:17.618Z,98813.48
2022-08-07T00:48:08.329Z,98810.60
2022-08-07T00:51:22.278Z,98806.02
2022-08-07T00:54:58.921Z,98805.52
2022-08-07T00:58:35.665Z,98806.96
2022-08-07T01:02:28.916Z,98807.19
2022-08-07T01:05:55.830Z,98805.90
2022-08-07T01:10:04.452Z,98803.89
2022-08-07T01:13:35.154Z,98799.33
2022-08-07T01:16:58.145Z,98799.84
2022-08-07T01:21:17.511Z,98805.48
2022-08-07T01:24:50.119Z,98802.95
2022-08-07T01:28:26.499Z,98802.77
2022-08-07T01:32:05.268Z,98803.89
2022-08-07T01:35:53.990Z,98802.20
2022-08-07T01:39:21.884Z,98808.41
2022-08-07T01:42:59.243Z,98808.84
2022-08-07T01:46:36.427Z,98802.52
2022-08-07T01:50:12.490Z,98795.73
2022-08-07T01:54:11.925Z,98794.24
2022-08-07T01:58:01.201Z,98792.06
2022-08-07T02:01:59.445Z,98796.04
2022-08-07T02:05:47.918Z,98790.85
2022-08-07T02:09:52.326Z,98788.30
2022-08-07T02:13:00.038Z,98779.88
2022-08-07T02:16:35.847Z,98787.52
2022-08-07T02:20:19.747Z,98798.23
2022-08-07T02:23:49.437Z,98795.87
2022-08-07T02:27:26.752Z,98793.46
2022-08-07T02:31:28.811Z,98799.73
2022-08-07T02:34:53.628Z,98804.83
2022-08-07T02:38:32.195Z,98802.55
2022-08-07T02:42:10.278Z,98807.74
2022-08-07T02:45:58.768Z,98808.05
2022-08-07T02:49:29.133Z,98805.02
2022-08-07T02:53:12.150Z,98798.13
2022-08-07T02:56:48.072Z,98799.02
2022-08-07T03:00:23.674Z,98798.73
2022-08-07T03:03:59.446Z,98801.32
2022-08-07T03:08:04.818Z,98806.22
2022-08-07T03:11:20.953Z,98812.10
2022-08-07T03:14:57.261Z,98819.05
2022-08-07T03:18:36.090Z,98811.63
2022-08-07T03:22:18.619Z,98809.14
2022-08-07T03:25:50.771Z,98816.29
2022-08-07T03:29:25.173Z,98811.20
2022-08-07T03:33:01.701Z,98806.58
2022-08-07T03:36:40.202Z,98807.38
2022-08-07T03:40:16.395Z,98807.95
2022-08-07T03:43:57.368Z,98807.67
2022-08-07T03:47:51.252Z,98806.63
2022-08-07T03:51:15.236Z,98809.20
2022-08-07T03:55:10.597Z,98813.08
2022-08-07T03:59:07.049Z,98815.39
2022-08-07T04:02:19.296Z,98809.52
2022-08-07T04:06:37.308Z,98819.76
2022-08-07T04:09:56.712Z,98828.73
2022-08-07T04:14:32.896Z,98832.47
2022-08-07T04:18:56.929Z,98825.91
2022-08-07T04:21:18.971Z,98824.29
2022-08-07T04:25:17.560Z,98825.56
2022-08-07T04:28:58.534Z,98831.23
2022-08-07T04:32:34.119Z,98821.95
2022-08-07T04:36:17.675Z,98824.85
2022-08-07T04:40:04.978Z,98824.75
2022-08-07T04:44:13.036Z,98834.80
2022-08-07T04:48:07.781Z,98842.20
2022-08-07T04:51:46.903Z,98839.34
2022-08-07T04:58:10.247Z,98842.09
2022-08-07T05:00:12.066Z,98848.77
2022-08-07T05:04:17.157Z,98849.36
2022-08-07T05:07:51.726Z,98846.35
2022-08-07T05:11:57.315Z,98847.95
2022-08-07T05:15:25.431Z,98847.22
2022-08-07T05:19:14.923Z,98846.52
2022-08-07T05:22:39.583Z,98848.38
2022-08-07T05:26:24.261Z,98850.70
2022-08-07T05:29:53.743Z,98850.95
2022-08-07T05:34:01.235Z,98850.20
2022-08-07T05:37:28.728Z,98851.05
2022-08-07T05:41:11.955Z,98852.20
2022-08-07T05:44:52.761Z,98855.02
2022-08-07T05:48:58.017Z,98854.77
2022-08-07T05:52:20.669Z,98850.80
2022-08-07T05:56:18.850Z,98852.36
2022-08-07T05:59:57.853Z,98855.02
2022-08-07T06:03:57.113Z,98863.94
2022-08-07T06:07:22.743Z,98866.98
2022-08-07T06:10:57.131Z,98864.89
2022-08-07T06:14:52.933Z,98867.24
2022-08-07T06:18:15.924Z,98867.79
2022-08-07T06:22:15.778Z,98865.96
2022-08-07T06:25:54.423Z,98862.63
2022-08-07T06:29:28.639Z,98868.70
2022-08-07T06:33:01.237Z,98873.65
2022-08-07T06:36:37.377Z,98877.98
2022-08-07T06:40:20.671Z,98881.77
2022-08-07T06:44:16.335Z,98885.48
2022-08-07T06:47:57.117Z,98880.09
2022-08-07T06:51:33.190Z,98884.80
2022-08-07T06:55:33.377Z,98889.67
2022-08-07T07:00:13.372Z,98894.27
2022-08-07T07:02:54.092Z,98893.90
2022-08-07T07:06:26.436Z,98897.92
2022-08-07T07:10:26.695Z,98903.36
2022-08-07T07:14:08.328Z,98899.73
2022-08-07T07:18:05.573Z,98898.08
2022-08-07T07:21:40.204Z,98897.29
2022-08-07T07:26:33.145Z,98894.71
2022-08-07T07:29:56.236Z,98890.73
2022-08-07T07:33:12.624Z,98892.38
2022-08-07T07:37:14.489Z,98890.30
2022-08-07T07:40:46.898Z,98891.33
2022-08-07T07:44:26.479Z,98895.23
2022-08-07T07:47:59.356Z,98892.89
2022-08-07T07:51:58.165Z,98893.67
2022-08-07T07:55:20.947Z,98896.16
2022-08-07T07:58:57.498Z,98895.39
2022-08-07T08:02:35.637Z,98892.23
2022-08-07T08:06:30.546Z,98891.41
2022-08-07T08:10:05.374Z,98895.41
2022-08-07T08:13:36.558Z,98890.63
2022-08-07T08:18:17.664Z,98890.45
2022-08-07T08:21:55.950Z,98890.08
2022-08-07T08:25:43.038Z,98898.06
2022-08-07T08:29:16.483Z,98899.73
2022-08-07T08:33:01.892Z,98901.03
2022-08-07T08:36:32.056Z,98896.86
2022-08-07T08:40:39.727Z,98899.89
2022-08-07T08:44:14.424Z,98897.00
2022-08-07T08:48:32.421Z,98891.52
2022-08-07T08:52:14.177Z,98894.28
2022-08-07T08:55:54.830Z,98896.39
2022-08-07T08:59:57.192Z,98895.33
2022-08-07T09:03:52.765Z,98899.17
2022-08-07T09:07:59.015Z,98899.33
2022-08-07T09:11:55.449Z,98891.65
2022-08-07T09:16:22.556Z,98885.06
2022-08-07T09:19:53.200Z,98886.66
2022-08-07T09:24:32.871Z,98887.41
2022-08-07T09:28:00.240Z,98880.49
2022-08-07T09:31:53.935Z,98881.86
2022-08-07T09:36:04.464Z,98874.89
2022-08-07T09:39:55.290Z,98875.10
2022-08-07T09:44:03.298Z,98872.52
2022-08-07T09:48:01.604Z,98867.43
2022-08-07T09:52:16.587Z,98867.35
2022-08-07T09:56:03.842Z,98859.80
2022-08-07T09:59:46.729Z,98862.14
2022-08-07T10:04:06.089Z,98855.77
2022-08-07T10:07:39.817Z,98853.16
2022-08-07T10:12:13.311Z,98850.05
2022-08-07T10:16:11.315Z,98843.00
2022-08-07T10:20:06.593Z,98839.98
2022-08-07T10:24:08.604Z,98843.60
2022-08-07T10:28:28.552Z,98837.06
2022-08-07T10:32:36.573Z,98832.14
2022-08-07T10:36:29.843Z,98827.20
2022-08-07T10:40:05.356Z,98824.69
2022-08-07T10:44:13.149Z,98823.54
2022-08-07T10:48:09.712Z,98820.31
2022-08-07T10:52:13.476Z,98819.80
2022-08-07T10:55:47.722Z,98813.98
2022-08-07T10:59:47.650Z,98805.45
2022-08-07T11:03:27.918Z,98803.41
2022-08-07T11:07:24.785Z,98799.11
2022-08-07T11:11:10.636Z,98795.71
2022-08-07T11:14:59.868Z,98796.12
2022-08-07T11:18:50.658Z,98793.71
2022-08-07T11:22:37.255Z,98784.77
2022-08-07T11:26:19.784Z,98784.09
2022-08-07T11:30:18.657Z,98783.31
2022-08-07T11:34:16.476Z,98776.91
2022-08-07T11:38:10.516Z,98777.29
2022-08-07T11:42:02.093Z,98769.93
2022-08-07T11:45:57.390Z,98768.73
2022-08-07T11:50:18.518Z,98765.65
2022-08-07T11:53:25.249Z,98768.31
2022-08-07T11:57:20.793Z,98769.09
2022-08-07T12:01:59.963Z,98762.60
2022-08-07T12:05:47.629Z,98764.91
2022-08-07T12:09:46.172Z,98759.94
2022-08-07T12:13:35.612Z,98750.48
2022-08-07T12:17:19.729Z,98741.73
2022-08-07T12:20:57.166Z,98743.94
2022-08-07T12:26:00.893Z,98745.33
2022-08-07T12:29:15.999Z,98743.35
2022-08-07T12:33:18.711Z,98740.05
2022-08-07T12:37:08.231Z,98741.43
2022-08-07T12:40:48.954Z,98734.61
2022-08-07T12:44:36.127Z,98727.39
2022-08-07T12:48:27.542Z,98732.23
2022-08-07T12:52:13.631Z,98724.91
2022-08-07T12:56:02.626Z,98722.76
2022-08-07T12:59:33.161Z,98727.65
2022-08-07T13:04:03.164Z,98725.39
2022-08-07T13:08:12.304Z,98726.83
2022-08-07T13:12:01.897Z,98718.55
2022-08-07T13:15:33.433Z,98714.38
2022-08-07T13:19:21.649Z,98712.69
2022-08-07T13:23:09.919Z,98706.00
2022-08-07T13:27:22.696Z,98711.77
2022-08-07T13:31:14.009Z,98709.99
2022-08-07T13:34:44.729Z,98707.02
2022-08-07T13:38:57.264Z,98704.83
2022-08-07T13:42:24.854Z,98694.92
2022-08-07T13:46:11.977Z,98695.49
2022-08-07T13:50:33.400Z,98689.30
2022-08-07T13:54:00.546Z,98688.83
2022-08-07T13:57:32.096Z,98677.81
2022-08-07T14:01:27.141Z,98681.25
2022-08-07T14:05:12.595Z,98681.84
2022-08-07T14:08:54.869Z,98681.15
2022-08-07T14:12:54.004Z,98681.21
2022-08-07T14:16:17.892Z,98678.59
2022-08-07T14:20:39.310Z,98682.27
2022-08-07T14:24:33.449Z,98677.66
2022-08-07T14:28:12.569Z,98675.86
2022-08-07T14:31:42.724Z,98670.20
2022-08-07T14:35:43.147Z,98662.98
2022-08-07T14:50:26.356Z,98649.92
2022-08-07T14:54:31.039Z,98648.09
2022-08-07T14:57:59.120Z,98645.81
2022-08-07T15:01:42.842Z,98644.42
2022-08-07T15:05:33.913Z,98642.70
2022-08-07T15:09:59.209Z,98644.33
2022-08-07T15:16:54.596Z,98627.83
2022-08-07T15:20:33.290Z,98623.99
2022-08-07T15:28:30.673Z,98618.98
2022-08-07T15:39:19.267Z,98617.19
2022-08-07T15:47:18.211Z,98608.70
2022-08-07T15:51:07.853Z,98606.56
2022-08-07T15:54:50.902Z,98608.63
2022-08-07T15:58:20.894Z,98607.40
2022-08-07T16:02:02.396Z,98608.46
2022-08-07T16:05:31.365Z,98611.35
2022-08-07T16:09:22.691Z,98609.77
2022-08-07T16:13:17.548Z,98611.34
2022-08-07T16:16:56.998Z,98610.52
2022-08-07T16:20:33.730Z,98608.87
2022-08-07T16:24:34.451Z,98606.02
2022-08-07T16:30:06.016Z,98601.56
2022-08-07T16:32:34.963Z,98599.86
2022-08-07T16:36:20.701Z,98598.83
2022-08-07T16:40:23.448Z,98602.25
2022-08-07T16:44:46.405Z,98592.59
2022-08-07T16:48:58.532Z,98591.34
2022-08-07T16:52:49.288Z,98596.48
2022-08-07T16:56:18.832Z,98590.91
2022-08-07T17:00:05.535Z,98591.31
2022-08-07T17:03:58.493Z,98593.85
2022-08-07T17:07:55.367Z,98594.05
2022-08-07T17:12:44.684Z,98603.09
2022-08-07T17:16:02.076Z,98601.44
2022-08-07T17:20:02.179Z,98604.45
2022-08-07T17:23:22.556Z,98602.93
2022-08-07T17:27:07.214Z,98602.45
2022-08-07T17:30:57.586Z,98602.23
2022-08-07T17:34:57.218Z,98603.17
2022-08-07T17:38:33.362Z,98602.58
2022-08-07T17:42:07.002Z,98605.39
2022-08-07T17:46:11.880Z,98604.55
2022-08-07T17:49:44.636Z,98604.60
2022-08-07T17:54:01.516Z,98607.33
2022-08-07T17:57:59.219Z,98612.88
2022-08-07T18:01:36.663Z,98612.70
2022-08-07T18:05:21.719Z,98620.55
2022-08-07T18:09:05.889Z,98625.26
2022-08-07T18:13:09.969Z,98623.80
2022-08-07T18:16:57.674Z,98629.86
2022-08-07T18:21:10.554Z,98630.92
2022-08-07T18:24:33.743Z,98630.92
2022-08-07T18:28:36.075Z,98635.61
2022-08-07T18:32:25.778Z,98637.80
2022-08-07T18:36:32.720Z,98640.80
2022-08-07T18:40:39.938Z,98643.08
2022-08-07T18:44:29.478Z,98638.66
2022-08-07T18:50:06.133Z,98639.22
2022-08-07T18:52:40.995Z,98641.98
2022-08-07T18:56:37.685Z,98644.83
2022-08-07T19:00:35.272Z,98647.77
2022-08-07T19:04:54.644Z,98649.29
2022-08-07T19:08:46.341Z,98649.09
2022-08-07T19:12:17.962Z,98649.19
2022-08-07T19:16:05.804Z,98644.78
2022-08-07T19:20:05.407Z,98642.65
2022-08-07T19:23:58.901Z,98641.00
2022-08-07T19:28:29.763Z,98642.54
2022-08-07T19:32:11.514Z,98648.34
2022-08-07T19:35:33.120Z,98652.15
2022-08-07T19:39:04.827Z,98650.07
2022-08-07T19:43:07.992Z,98652.47
2022-08-07T19:46:35.757Z,98656.23
2022-08-07T19:50:44.326Z,98659.27
2022-08-07T19:54:31.809Z,98662.98
2022-08-07T19:58:15.523Z,98661.58
2022-08-07T20:01:52.581Z,98664.64
2022-08-07T20:05:29.774Z,98666.02
2022-08-07T20:09:02.983Z,98667.27
2022-08-07T20:12:38.206Z,98664.17
2022-08-07T20:16:36.125Z,98666.15
2022-08-07T20:19:59.184Z,98671.06
2022-08-07T20:23:42.915Z,98671.02
2022-08-07T20:27:47.763Z,98674.08
2022-08-07T20:31:21.389Z,98671.40
2022-08-07T20:34:51.039Z,98671.14
2022-08-07T20:38:59.339Z,98666.81
2022-08-07T20:42:27.096Z,98671.61
2022-08-07T20:46:26.006Z,98674.81
2022-08-07T20:49:58.049Z,98675.48
2022-08-07T20:54:04.654Z,98674.98
2022-08-07T20:57:29.728Z,98674.00
2022-08-07T21:01:19.749Z,98675.61
2022-08-07T21:04:45.920Z,98675.52
2022-08-07T21:08:39.310Z,98676.48
2022-08-07T21:12:15.100Z,98674.81
2022-08-07T21:15:58.374Z,98675.66
2022-08-07T21:19:51.370Z,98671.59
2022-08-07T21:23:33.408Z,98672.00
2022-08-07T21:27:55.050Z,98675.45
2022-08-07T21:32:10.770Z,98673.33
2022-08-07T21:36:05.792Z,98670.70
2022-08-07T21:39:48.078Z,98675.36
2022-08-07T21:43:22.841Z,98681.26
2022-08-07T21:47:12.302Z,98678.14
2022-08-07T21:50:45.661Z,98671.04
2022-08-07T21:54:45.948Z,98674.70
2022-08-07T21:58:55.827Z,98677.23
2022-08-07T22:02:37.845Z,98676.31
2022-08-07T22:06:30.012Z,98679.00
2022-08-07T22:10:01.383Z,98680.73
2022-08-07T22:13:52.039Z,98679.61
2022-08-07T22:17:19.442Z,98677.22
2022-08-07T22:21:11.475Z,98683.52
2022-08-07T22:25:10.348Z,98689.31
2022-08-07T22:29:09.031Z,98690.89
2022-08-07T22:32:53.075Z,98689.88
2022-08-07T22:36:48.730Z,98691.31
2022-08-07T22:40:44.934Z,98688.82
2022-08-07T22:44:18.574Z,98686.34
2022-08-07T22:48:31.659Z,98680.16
2022-08-07T22:52:37.338Z,98679.36
2022-08-07T22:56:34.773Z,98676.56
2022-08-07T23:00:14.336Z,98671.91
2022-08-07T23:04:29.924Z,98675.00
2022-08-07T23:08:49.707Z,98673.48
2022-08-07T23:12:42.342Z,98677.89
2022-08-07T23:16:55.378Z,98676.70
2022-08-07T23:21:05.788Z,98678.65
2022-08-07T23:25:00.277Z,98673.91
2022-08-07T23:28:29.162Z,98673.73
2022-08-07T23:34:19.878Z,98665.73
2022-08-07T23:36:43.078Z,98663.02
2022-08-07T23:40:11.864Z,98656.39
2022-08-07T23:44:29.792Z,98656.52
2022-08-07T23:48:03.563Z,98651.64
2022-08-07T23:53:01.649Z,98648.59
2022-08-07T23:56:02.316Z,98649.86
